Time;durP1;ratioP1;P1;durP2;ratioP2;P2;SDS_P1;SDS_P2;PMS_P1;PMS_P2;Temp;Humidity;BMP_temperature;BMP_pressure;BME280_temperature;BME280_humidity;BME280_pressure;Samples;Min_cycle;Max_cycle;Signal;HPM_P1;HPM_P2
2021/09/20 00:01:12;;;;;;;2.20;2.00;;;;;;;;;;5038124;28;20032;-56
2021/09/20 00:03:37;;;;;;;2.35;2.15;;;;;;;;;;5039529;28;20464;-54
2021/09/20 00:06:03;;;;;;;2.40;2.20;;;;;;;;;;5040983;28;20025;-57
2021/09/20 00:08:28;;;;;;;5.10;2.30;;;;;;;;;;5039349;28;20086;-55
2021/09/20 00:10:54;;;;;;;3.15;2.50;;;;;;;;;;5038080;28;20029;-56
2021/09/20 00:13:19;;;;;;;2.33;2.13;;;;;;;;;;5038926;28;20021;-55
2021/09/20 00:15:44;;;;;;;2.22;1.80;;;;;;;;;;5038484;28;20867;-59
2021/09/20 00:18:09;;;;;;;2.38;2.17;;;;;;;;;;5039391;28;20089;-55
2021/09/20 00:20:35;;;;;;;2.50;2.17;;;;;;;;;;5038419;28;20080;-54
2021/09/20 00:23:00;;;;;;;2.50;2.30;;;;;;;;;;5042115;28;20041;-57
2021/09/20 00:25:25;;;;;;;1.83;1.73;;;;;;;;;;5037931;28;20368;-58
2021/09/20 00:27:52;;;;;;;3.10;2.90;;;;;;;;;;5041536;28;20453;-53
2021/09/20 00:30:17;;;;;;;3.33;2.00;;;;;;;;;;5038214;28;20036;-55
2021/09/20 00:32:42;;;;;;;3.25;2.25;;;;;;;;;;5040620;28;20748;-54
2021/09/20 00:35:08;;;;;;;2.20;2.00;;;;;;;;;;5038509;28;20080;-59
2021/09/20 00:37:33;;;;;;;2.15;2.05;;;;;;;;;;5039647;28;20409;-55
2021/09/20 00:39:58;;;;;;;2.20;1.90;;;;;;;;;;5038652;28;20584;-54
2021/09/20 00:42:23;;;;;;;2.90;1.98;;;;;;;;;;5039117;28;20144;-56
2021/09/20 00:44:49;;;;;;;2.30;1.85;;;;;;;;;;5038707;28;20033;-57
2021/09/20 00:47:14;;;;;;;2.58;1.83;;;;;;;;;;5037204;28;20036;-56
2021/09/20 00:49:39;;;;;;;2.22;2.05;;;;;;;;;;5038904;28;20061;-58
2021/09/20 00:52:05;;;;;;;2.03;1.88;;;;;;;;;;5038730;28;20033;-57
2021/09/20 00:54:30;;;;;;;4.05;2.03;;;;;;;;;;5036355;28;20056;-57
2021/09/20 00:56:56;;;;;;;2.17;2.08;;;;;;;;;;5034777;28;20021;-56
2021/09/20 00:59:21;;;;;;;2.28;2.08;;;;;;;;;;5037697;28;20071;-54
2021/09/20 01:01:48;;;;;;;2.25;1.90;;;;;;;;;;5036124;28;20064;-56
2021/09/20 01:04:13;;;;;;;2.20;2.00;;;;;;;;;;5037860;28;20029;-56
2021/09/20 01:06:38;;;;;;;2.22;2.10;;;;;;;;;;5035907;28;20420;-57
2021/09/20 01:09:03;;;;;;;1.90;1.80;;;;;;;;;;5038337;28;20028;-54
2021/09/20 01:11:29;;;;;;;2.40;2.20;;;;;;;;;;5035546;28;20037;-56
2021/09/20 01:13:55;;;;;;;2.60;1.90;;;;;;;;;;5034209;28;20025;-58
2021/09/20 01:16:20;;;;;;;2.47;2.28;;;;;;;;;;5036152;28;20017;-56
2021/09/20 01:18:45;;;;;;;4.43;2.50;;;;;;;;;;5035331;28;20108;-54
2021/09/20 01:21:13;;;;;;;2.97;2.78;;;;;;;;;;5035458;28;20032;-53
2021/09/20 01:23:39;;;;;;;3.35;2.40;;;;;;;;;;5038181;28;20033;-54
2021/09/20 01:26:04;;;;;;;2.33;2.10;;;;;;;;;;5034791;28;20037;-54
2021/09/20 01:28:29;;;;;;;2.75;2.55;;;;;;;;;;5033192;28;20025;-54
2021/09/20 01:30:54;;;;;;;2.83;2.38;;;;;;;;;;5034619;28;20069;-55
2021/09/20 01:33:20;;;;;;;2.45;2.22;;;;;;;;;;5035803;28;20017;-56
2021/09/20 01:35:45;;;;;;;2.85;2.65;;;;;;;;;;5035776;28;20045;-58
2021/09/20 01:38:10;;;;;;;2.47;2.25;;;;;;;;;;5037105;28;20367;-56
2021/09/20 01:40:35;;;;;;;2.47;2.28;;;;;;;;;;5033786;28;20029;-57
2021/09/20 01:43:02;;;;;;;2.67;2.13;;;;;;;;;;5035016;28;21065;-54
2021/09/20 01:45:27;;;;;;;2.30;2.10;;;;;;;;;;5037477;28;20076;-56
2021/09/20 01:47:52;;;;;;;3.47;3.20;;;;;;;;;;5037014;28;20488;-59
2021/09/20 01:50:18;;;;;;;2.58;2.20;;;;;;;;;;5037171;28;20493;-57
2021/09/20 01:52:43;;;;;;;3.03;2.50;;;;;;;;;;5033636;28;20116;-55
2021/09/20 01:55:09;;;;;;;3.33;2.10;;;;;;;;;;5035547;28;20032;-57
2021/09/20 01:57:34;;;;;;;2.95;2.40;;;;;;;;;;5035855;28;20029;-58
2021/09/20 01:59:59;;;;;;;2.53;2.33;;;;;;;;;;5034451;28;20060;-56
2021/09/20 02:02:25;;;;;;;3.30;3.00;;;;;;;;;;5032522;28;20022;-55
2021/09/20 02:04:50;;;;;;;2.60;2.40;;;;;;;;;;5032232;28;20022;-56
2021/09/20 02:07:15;;;;;;;2.70;2.50;;;;;;;;;;5033551;28;20981;-56
2021/09/20 02:09:40;;;;;;;2.50;2.30;;;;;;;;;;5035191;28;20025;-55
2021/09/20 02:12:06;;;;;;;3.33;3.03;;;;;;;;;;5034648;28;20053;-53
2021/09/20 02:14:31;;;;;;;2.28;2.15;;;;;;;;;;5035286;28;20052;-54
2021/09/20 02:16:56;;;;;;;2.88;2.58;;;;;;;;;;5032786;28;20128;-55
2021/09/20 02:19:22;;;;;;;2.75;2.55;;;;;;;;;;5036250;28;20047;-53
2021/09/20 02:21:47;;;;;;;2.80;2.60;;;;;;;;;;5033992;28;20075;-54
2021/09/20 02:24:12;;;;;;;3.22;2.45;;;;;;;;;;5033855;28;20025;-55
2021/09/20 02:26:37;;;;;;;3.55;2.50;;;;;;;;;;5034100;28;20457;-52
2021/09/20 02:29:03;;;;;;;2.42;2.22;;;;;;;;;;5035533;28;20029;-59
2021/09/20 02:31:29;;;;;;;3.20;2.92;;;;;;;;;;5033730;28;20033;-56
2021/09/20 02:33:54;;;;;;;3.35;3.05;;;;;;;;;;5034712;28;20701;-58
2021/09/20 02:36:19;;;;;;;3.78;3.28;;;;;;;;;;5033909;28;20057;-56
2021/09/20 02:38:45;;;;;;;2.53;2.33;;;;;;;;;;5034235;28;20104;-56
2021/09/20 02:41:10;;;;;;;4.82;2.45;;;;;;;;;;5034669;28;20067;-57
2021/09/20 02:43:35;;;;;;;3.15;2.85;;;;;;;;;;5035316;28;20079;-56
2021/09/20 02:46:01;;;;;;;3.08;2.88;;;;;;;;;;5031224;28;20033;-56
2021/09/20 02:48:26;;;;;;;2.85;2.60;;;;;;;;;;5035593;28;20017;-56
2021/09/20 02:50:51;;;;;;;3.00;2.10;;;;;;;;;;5030836;28;20036;-56
2021/09/20 02:53:16;;;;;;;3.25;2.45;;;;;;;;;;5035356;28;20035;-55
2021/09/20 02:55:43;;;;;;;4.13;2.85;;;;;;;;;;5033644;28;20025;-54
2021/09/20 02:58:08;;;;;;;2.95;2.53;;;;;;;;;;5035659;28;20515;-56
2021/09/20 03:00:33;;;;;;;3.13;2.38;;;;;;;;;;5034867;28;20103;-57
2021/09/20 03:02:58;;;;;;;3.80;3.00;;;;;;;;;;5033418;28;20313;-57
2021/09/20 03:05:24;;;;;;;3.67;2.80;;;;;;;;;;5035752;28;20064;-55
2021/09/20 03:07:49;;;;;;;3.22;2.90;;;;;;;;;;5033839;28;20052;-56
2021/09/20 03:10:14;;;;;;;3.17;2.88;;;;;;;;;;5033761;28;20082;-55
2021/09/20 03:12:40;;;;;;;3.33;2.83;;;;;;;;;;5033853;28;20481;-59
2021/09/20 03:15:06;;;;;;;3.30;2.60;;;;;;;;;;5034883;28;20032;-59
2021/09/20 03:17:32;;;;;;;2.60;2.40;;;;;;;;;;5035026;28;20021;-56
2021/09/20 03:19:58;;;;;;;3.42;2.67;;;;;;;;;;5032311;28;20474;-54
2021/09/20 03:22:24;;;;;;;2.75;2.35;;;;;;;;;;5032652;28;20057;-57
2021/09/20 03:24:49;;;;;;;2.90;2.70;;;;;;;;;;5033713;28;20060;-56
2021/09/20 03:27:14;;;;;;;3.60;2.67;;;;;;;;;;5035533;28;20050;-57
2021/09/20 03:29:40;;;;;;;3.53;2.63;;;;;;;;;;5033819;28;20057;-56
2021/09/20 03:32:05;;;;;;;5.32;3.28;;;;;;;;;;5033939;28;20036;-53
2021/09/20 03:34:30;;;;;;;3.95;3.15;;;;;;;;;;5033091;28;20041;-55
2021/09/20 03:36:56;;;;;;;3.38;2.80;;;;;;;;;;5031967;28;20144;-57
2021/09/20 03:39:21;;;;;;;4.38;3.03;;;;;;;;;;5034234;28;20025;-56
2021/09/20 03:41:46;;;;;;;3.33;3.03;;;;;;;;;;5032708;28;20026;-56
2021/09/20 03:44:11;;;;;;;4.38;3.05;;;;;;;;;;5034069;28;20530;-57
2021/09/20 03:46:37;;;;;;;2.83;2.60;;;;;;;;;;5034256;28;20025;-57
2021/09/20 03:49:03;;;;;;;2.83;2.58;;;;;;;;;;5035844;28;20144;-59
2021/09/20 03:51:28;;;;;;;4.72;3.63;;;;;;;;;;5032454;28;20045;-58
2021/09/20 03:53:53;;;;;;;3.03;2.80;;;;;;;;;;5033187;28;20017;-55
2021/09/20 03:56:19;;;;;;;3.80;3.40;;;;;;;;;;5034862;28;20531;-57
2021/09/20 03:58:44;;;;;;;3.97;3.15;;;;;;;;;;5033476;28;20021;-55
2021/09/20 04:01:09;;;;;;;4.00;3.13;;;;;;;;;;5030935;28;20035;-56
2021/09/20 04:03:35;;;;;;;4.32;3.50;;;;;;;;;;5032133;28;20779;-59
2021/09/20 04:06:01;;;;;;;4.55;3.05;;;;;;;;;;5032163;28;20022;-57
2021/09/20 04:08:27;;;;;;;4.32;3.53;;;;;;;;;;5034795;28;20028;-57
2021/09/20 04:10:53;;;;;;;5.85;3.40;;;;;;;;;;5033386;28;20036;-54
2021/09/20 04:13:18;;;;;;;4.57;3.63;;;;;;;;;;5033946;28;20029;-59
2021/09/20 04:15:43;;;;;;;4.47;3.65;;;;;;;;;;5032063;28;20017;-58
2021/09/20 04:18:08;;;;;;;4.45;3.92;;;;;;;;;;5032918;28;20339;-58
2021/09/20 04:20:34;;;;;;;4.35;3.83;;;;;;;;;;5032557;28;20033;-55
2021/09/20 04:22:59;;;;;;;4.55;4.10;;;;;;;;;;5033913;28;20474;-56
2021/09/20 04:25:24;;;;;;;5.20;3.83;;;;;;;;;;5032623;28;20037;-58
2021/09/20 04:27:50;;;;;;;5.05;3.47;;;;;;;;;;5032115;28;20459;-55
2021/09/20 04:30:15;;;;;;;4.50;3.55;;;;;;;;;;5035225;28;20024;-58
2021/09/20 04:32:40;;;;;;;4.90;4.10;;;;;;;;;;5036123;28;20036;-57
2021/09/20 04:35:06;;;;;;;5.32;3.40;;;;;;;;;;5046713;28;20045;-58
2021/09/20 04:37:31;;;;;;;4.53;3.42;;;;;;;;;;5034887;28;20065;-57
2021/09/20 04:39:57;;;;;;;7.20;4.07;;;;;;;;;;5036626;28;20139;-56
2021/09/20 04:42:22;;;;;;;4.60;3.83;;;;;;;;;;5036682;28;20204;-56
2021/09/20 04:44:47;;;;;;;5.32;3.85;;;;;;;;;;5038057;28;20021;-56
2021/09/20 04:47:12;;;;;;;5.20;4.03;;;;;;;;;;5036584;28;20076;-58
2021/09/20 04:49:39;;;;;;;4.78;4.28;;;;;;;;;;5045099;28;20028;-54
2021/09/20 04:52:04;;;;;;;4.72;4.05;;;;;;;;;;5037944;28;20068;-56
2021/09/20 04:54:29;;;;;;;4.97;4.30;;;;;;;;;;5037865;28;20040;-55
2021/09/20 04:56:55;;;;;;;4.72;4.22;;;;;;;;;;5034490;28;20021;-57
2021/09/20 04:59:20;;;;;;;4.90;3.67;;;;;;;;;;5043095;28;20024;-56
2021/09/20 05:01:45;;;;;;;5.82;4.22;;;;;;;;;;5034344;28;20493;-57
2021/09/20 05:04:10;;;;;;;6.57;4.40;;;;;;;;;;5035642;28;20056;-57
2021/09/20 05:06:39;;;;;;;5.22;3.92;;;;;;;;;;5033793;28;20029;-58
2021/09/20 05:09:06;;;;;;;6.65;4.05;;;;;;;;;;5035159;28;20075;-60
2021/09/20 05:11:32;;;;;;;4.90;4.43;;;;;;;;;;5036570;28;20776;-64
2021/09/20 05:13:57;;;;;;;6.15;4.35;;;;;;;;;;5036308;28;20017;-55
2021/09/20 05:16:22;;;;;;;8.18;5.50;;;;;;;;;;5034722;28;20882;-62
2021/09/20 05:18:47;;;;;;;5.10;4.07;;;;;;;;;;5036175;28;20028;-61
2021/09/20 05:21:13;;;;;;;6.18;4.05;;;;;;;;;;5034855;28;20067;-61
2021/09/20 05:23:38;;;;;;;4.90;4.22;;;;;;;;;;5034186;28;20556;-59
2021/09/20 05:26:03;;;;;;;4.30;3.90;;;;;;;;;;5034181;28;20184;-58
2021/09/20 05:28:29;;;;;;;7.63;4.35;;;;;;;;;;5032566;28;20080;-60
2021/09/20 05:30:54;;;;;;;5.35;3.97;;;;;;;;;;5034289;28;20029;-58
2021/09/20 05:33:19;;;;;;;5.78;4.35;;;;;;;;;;5036063;28;20116;-59
2021/09/20 05:35:45;;;;;;;5.75;4.20;;;;;;;;;;5036282;28;20061;-61
2021/09/20 05:38:12;;;;;;;4.53;3.75;;;;;;;;;;5034064;28;20028;-57
2021/09/20 05:40:37;;;;;;;4.53;4.00;;;;;;;;;;5033413;28;20029;-56
2021/09/20 05:43:02;;;;;;;5.35;4.00;;;;;;;;;;5037437;28;20389;-58
2021/09/20 05:45:27;;;;;;;4.32;3.83;;;;;;;;;;5034583;28;20029;-58
2021/09/20 05:47:53;;;;;;;4.93;3.97;;;;;;;;;;5034026;28;20075;-57
2021/09/20 05:50:19;;;;;;;4.75;4.22;;;;;;;;;;5034325;28;20261;-57
2021/09/20 05:52:45;;;;;;;4.25;3.88;;;;;;;;;;5034179;28;20045;-56
2021/09/20 05:55:12;;;;;;;4.47;3.88;;;;;;;;;;5036661;28;20021;-59
2021/09/20 05:57:37;;;;;;;5.25;3.70;;;;;;;;;;5033630;28;20025;-56
2021/09/20 06:00:03;;;;;;;4.70;4.30;;;;;;;;;;5035772;28;20091;-59
2021/09/20 06:02:28;;;;;;;9.52;5.65;;;;;;;;;;5032998;28;20026;-56
2021/09/20 06:04:53;;;;;;;11.00;6.57;;;;;;;;;;5035755;28;20033;-56
2021/09/20 06:07:19;;;;;;;7.75;3.92;;;;;;;;;;5032857;28;20512;-61
2021/09/20 06:09:44;;;;;;;5.22;3.70;;;;;;;;;;5034508;28;20071;-59
2021/09/20 06:12:09;;;;;;;4.00;3.67;;;;;;;;;;5032493;28;20022;-56
2021/09/20 06:14:35;;;;;;;5.75;4.35;;;;;;;;;;5032172;28;20021;-59
2021/09/20 06:17:00;;;;;;;5.50;3.70;;;;;;;;;;5031773;28;20340;-60
2021/09/20 06:19:26;;;;;;;5.93;3.75;;;;;;;;;;5033863;28;20024;-57
2021/09/20 06:21:51;;;;;;;5.43;3.70;;;;;;;;;;5031360;28;20037;-59
2021/09/20 06:24:17;;;;;;;5.15;3.72;;;;;;;;;;5033529;28;20147;-58
2021/09/20 06:26:42;;;;;;;5.15;3.67;;;;;;;;;;5035837;28;20075;-58
2021/09/20 06:29:10;;;;;;;4.82;3.53;;;;;;;;;;5033399;28;20029;-56
2021/09/20 06:31:35;;;;;;;5.28;3.30;;;;;;;;;;5032118;28;20028;-60
2021/09/20 06:34:00;;;;;;;5.75;4.18;;;;;;;;;;5033148;28;20494;-56
2021/09/20 06:36:25;;;;;;;4.55;4.13;;;;;;;;;;5033944;28;20056;-56
2021/09/20 06:38:51;;;;;;;5.00;3.63;;;;;;;;;;5034083;28;20021;-57
2021/09/20 06:41:16;;;;;;;4.38;3.70;;;;;;;;;;5033962;28;20565;-59
2021/09/20 06:43:41;;;;;;;4.75;3.63;;;;;;;;;;5033246;28;20032;-57
2021/09/20 06:46:06;;;;;;;5.60;3.53;;;;;;;;;;5033489;28;20506;-58
2021/09/20 06:48:32;;;;;;;7.00;3.47;;;;;;;;;;5032432;28;20032;-57
2021/09/20 06:50:57;;;;;;;6.22;3.60;;;;;;;;;;5032413;28;20028;-56
2021/09/20 06:53:22;;;;;;;5.78;3.95;;;;;;;;;;5031850;28;20182;-59
2021/09/20 06:55:48;;;;;;;5.20;3.28;;;;;;;;;;5031987;28;20482;-57
2021/09/20 06:58:13;;;;;;;3.95;3.03;;;;;;;;;;5033294;28;20024;-58
2021/09/20 07:00:38;;;;;;;5.70;4.47;;;;;;;;;;5031832;28;20028;-56
2021/09/20 07:03:03;;;;;;;3.72;3.38;;;;;;;;;;5032455;28;20103;-57
2021/09/20 07:05:29;;;;;;;3.65;3.22;;;;;;;;;;5032178;28;20070;-54
2021/09/20 07:07:54;;;;;;;4.15;3.25;;;;;;;;;;5031626;28;20083;-54
2021/09/20 07:10:19;;;;;;;7.22;4.25;;;;;;;;;;5032932;28;20057;-58
2021/09/20 07:12:45;;;;;;;5.55;4.20;;;;;;;;;;5033617;28;20057;-57
2021/09/20 07:15:11;;;;;;;3.15;2.90;;;;;;;;;;5033121;28;20028;-54
2021/09/20 07:17:37;;;;;;;5.55;4.10;;;;;;;;;;5032314;28;20029;-58
2021/09/20 07:20:02;;;;;;;5.68;3.10;;;;;;;;;;5032054;28;20067;-55
2021/09/20 07:22:28;;;;;;;4.07;3.65;;;;;;;;;;5035141;28;20029;-56
2021/09/20 07:24:53;;;;;;;4.20;3.75;;;;;;;;;;5032556;28;20036;-57
2021/09/20 07:27:19;;;;;;;5.38;4.05;;;;;;;;;;5032551;28;20033;-59
2021/09/20 07:29:44;;;;;;;5.28;3.85;;;;;;;;;;5034567;28;20027;-57
2021/09/20 07:32:09;;;;;;;5.82;3.30;;;;;;;;;;5033032;28;20471;-55
2021/09/20 07:34:35;;;;;;;5.40;3.55;;;;;;;;;;5031449;28;20033;-57
2021/09/20 07:37:00;;;;;;;4.45;3.90;;;;;;;;;;5032253;28;20045;-60
2021/09/20 07:39:26;;;;;;;5.82;3.22;;;;;;;;;;5032923;28;20048;-57
2021/09/20 07:41:51;;;;;;;5.82;4.60;;;;;;;;;;5032439;28;20025;-57
2021/09/20 07:44:16;;;;;;;4.30;3.90;;;;;;;;;;5032341;28;20034;-58
2021/09/20 07:46:41;;;;;;;4.22;3.30;;;;;;;;;;5031960;28;20048;-56
2021/09/20 07:49:07;;;;;;;3.53;3.15;;;;;;;;;;5034754;28;20769;-56
2021/09/20 07:51:32;;;;;;;3.58;2.85;;;;;;;;;;5032498;28;20140;-57
2021/09/20 07:53:57;;;;;;;4.97;3.58;;;;;;;;;;5032904;28;20105;-57
2021/09/20 07:56:23;;;;;;;4.95;2.85;;;;;;;;;;5031898;28;20501;-53
2021/09/20 07:58:48;;;;;;;9.10;3.60;;;;;;;;;;5033156;28;20029;-53
2021/09/20 08:01:13;;;;;;;4.20;3.35;;;;;;;;;;5035711;28;20033;-60
2021/09/20 08:03:38;;;;;;;3.83;3.35;;;;;;;;;;5035798;28;20056;-57
2021/09/20 08:06:06;;;;;;;4.70;3.17;;;;;;;;;;5036338;28;20045;-59
2021/09/20 08:08:31;;;;;;;9.02;3.53;;;;;;;;;;5036799;28;20029;-56
2021/09/20 08:10:56;;;;;;;3.03;2.72;;;;;;;;;;5036273;28;20029;-56
2021/09/20 08:13:21;;;;;;;3.97;3.58;;;;;;;;;;5032983;28;20032;-60
2021/09/20 08:15:47;;;;;;;4.20;3.28;;;;;;;;;;5034680;28;20101;-60
2021/09/20 08:18:12;;;;;;;6.30;3.10;;;;;;;;;;5031938;28;20025;-56
2021/09/20 08:20:39;;;;;;;4.20;3.00;;;;;;;;;;5032607;28;20029;-59
2021/09/20 08:23:04;;;;;;;7.47;3.72;;;;;;;;;;5036138;28;20486;-58
2021/09/20 08:25:31;;;;;;;5.05;3.00;;;;;;;;;;5036376;28;20091;-60
2021/09/20 08:27:57;;;;;;;3.22;2.92;;;;;;;;;;5035165;28;20094;-61
2021/09/20 08:30:22;;;;;;;4.22;3.13;;;;;;;;;;5036989;28;20029;-59
2021/09/20 08:32:48;;;;;;;4.18;3.13;;;;;;;;;;5036851;28;20029;-61
2021/09/20 08:35:13;;;;;;;5.82;3.30;;;;;;;;;;5034892;28;20024;-59
2021/09/20 08:37:38;;;;;;;3.55;3.05;;;;;;;;;;5035501;28;20144;-59
2021/09/20 08:40:06;;;;;;;5.75;3.58;;;;;;;;;;5033698;28;20029;-60
2021/09/20 08:42:31;;;;;;;4.18;3.67;;;;;;;;;;5038220;28;20040;-59
2021/09/20 08:44:56;;;;;;;3.88;3.47;;;;;;;;;;5034875;28;20037;-60
2021/09/20 08:47:22;;;;;;;2.90;2.60;;;;;;;;;;5034506;28;20136;-60
2021/09/20 08:49:50;;;;;;;3.63;3.25;;;;;;;;;;5033562;28;20020;-59
2021/09/20 08:52:16;;;;;;;3.65;3.30;;;;;;;;;;5035794;28;20033;-59
2021/09/20 08:54:42;;;;;;;4.25;3.85;;;;;;;;;;5034377;28;20030;-59
2021/09/20 08:57:08;;;;;;;5.57;3.53;;;;;;;;;;5036211;28;20484;-57
2021/09/20 08:59:33;;;;;;;5.32;3.25;;;;;;;;;;5035804;28;20021;-59
2021/09/20 09:01:58;;;;;;;3.65;3.08;;;;;;;;;;5034229;28;20026;-61
2021/09/20 09:04:31;;;;;;;4.38;3.00;;;;;;;;;;5034581;28;20029;-59
2021/09/20 09:06:58;;;;;;;4.55;3.22;;;;;;;;;;5035367;28;20152;-58
2021/09/20 09:09:24;;;;;;;3.30;2.92;;;;;;;;;;5033831;28;20428;-60
2021/09/20 09:11:51;;;;;;;5.68;3.58;;;;;;;;;;5034156;28;20121;-61
2021/09/20 09:14:16;;;;;;;3.53;3.22;;;;;;;;;;5035154;28;20025;-61
2021/09/20 09:16:41;;;;;;;2.83;2.53;;;;;;;;;;5034729;28;20595;-61
2021/09/20 09:19:08;;;;;;;3.13;2.83;;;;;;;;;;5034580;28;20112;-60
2021/09/20 09:21:38;;;;;;;6.50;4.70;;;;;;;;;;5036144;28;20078;-61
2021/09/20 09:24:14;;;;;;;3.75;3.33;;;;;;;;;;5034286;28;20025;-61
2021/09/20 09:26:57;;;;;;;6.97;3.45;;;;;;;;;;5036047;28;20056;-61
2021/09/20 09:29:22;;;;;;;4.72;3.17;;;;;;;;;;5035763;28;20477;-61
2021/09/20 09:31:52;;;;;;;4.03;3.40;;;;;;;;;;5035918;28;20037;-61
2021/09/20 09:34:20;;;;;;;5.75;3.60;;;;;;;;;;5034135;28;20099;-60
2021/09/20 09:36:45;;;;;;;3.92;3.42;;;;;;;;;;5035946;28;20060;-61
2021/09/20 09:39:11;;;;;;;7.82;4.85;;;;;;;;;;5035564;28;20021;-62
2021/09/20 09:41:38;;;;;;;3.40;3.10;;;;;;;;;;5034354;28;20029;-60
2021/09/20 09:44:04;;;;;;;2.97;2.78;;;;;;;;;;5034827;28;20045;-59
2021/09/20 09:46:29;;;;;;;4.10;3.70;;;;;;;;;;5035483;28;20087;-57
2021/09/20 09:48:54;;;;;;;4.70;3.50;;;;;;;;;;5036506;28;20147;-61
2021/09/20 09:51:20;;;;;;;6.28;3.72;;;;;;;;;;5034169;28;20075;-58
2021/09/20 09:53:46;;;;;;;3.60;3.28;;;;;;;;;;5034557;28;20479;-58
2021/09/20 09:56:18;;;;;;;3.58;3.13;;;;;;;;;;5034240;28;20030;-58
2021/09/20 09:58:57;;;;;;;4.97;3.33;;;;;;;;;;5034214;28;20032;-60
2021/09/20 10:01:28;;;;;;;7.32;3.35;;;;;;;;;;5034883;28;20139;-59
2021/09/20 10:04:02;;;;;;;3.60;3.30;;;;;;;;;;5034624;28;20029;-59
2021/09/20 10:06:28;;;;;;;2.90;2.70;;;;;;;;;;5034730;28;20106;-62
2021/09/20 10:08:53;;;;;;;3.08;2.78;;;;;;;;;;5036869;28;20041;-61
2021/09/20 10:11:18;;;;;;;5.93;3.33;;;;;;;;;;5032871;28;20021;-62
2021/09/20 10:13:45;;;;;;;3.05;2.78;;;;;;;;;;5032858;28;20583;-61
2021/09/20 10:16:10;;;;;;;3.83;2.83;;;;;;;;;;5031781;28;20381;-62
2021/09/20 10:18:36;;;;;;;4.30;2.72;;;;;;;;;;5034991;28;20021;-62
2021/09/20 10:21:01;;;;;;;3.72;2.80;;;;;;;;;;5034399;28;20025;-58
2021/09/20 10:23:26;;;;;;;3.30;3.08;;;;;;;;;;5034026;28;20017;-57
2021/09/20 10:25:52;;;;;;;4.03;3.20;;;;;;;;;;5032694;28;20025;-60
2021/09/20 10:28:17;;;;;;;2.58;2.38;;;;;;;;;;5033424;28;20022;-57
2021/09/20 10:30:43;;;;;;;3.53;2.67;;;;;;;;;;5033508;28;20021;-57
2021/09/20 10:33:09;;;;;;;2.80;2.50;;;;;;;;;;5034317;28;20665;-59
2021/09/20 10:35:36;;;;;;;3.15;2.78;;;;;;;;;;5031497;28;20030;-56
2021/09/20 10:38:13;;;;;;;4.93;3.13;;;;;;;;;;5033781;28;20025;-57
2021/09/20 10:40:39;;;;;;;2.88;2.60;;;;;;;;;;5033459;28;20485;-58
2021/09/20 10:43:05;;;;;;;4.60;2.78;;;;;;;;;;5032929;28;20033;-60
2021/09/20 10:45:35;;;;;;;3.25;2.88;;;;;;;;;;5032738;28;20025;-59
2021/09/20 10:48:03;;;;;;;2.47;2.28;;;;;;;;;;5032531;28;20044;-63
2021/09/20 10:50:42;;;;;;;3.25;3.00;;;;;;;;;;5033854;28;20035;-56
2021/09/20 10:53:22;;;;;;;2.85;2.65;;;;;;;;;;5033692;28;20071;-59
2021/09/20 10:56:02;;;;;;;3.60;3.10;;;;;;;;;;5035997;28;20025;-61
2021/09/20 10:58:32;;;;;;;2.95;2.75;;;;;;;;;;5032044;28;20162;-59
2021/09/20 11:01:06;;;;;;;3.25;3.00;;;;;;;;;;5034478;28;20386;-62
2021/09/20 11:03:38;;;;;;;3.43;3.10;;;;;;;;;;5034478;28;20045;-59
2021/09/20 11:06:32;;;;;;;3.45;2.63;;;;;;;;;;5032595;28;20263;-58
2021/09/20 11:08:57;;;;;;;7.18;3.33;;;;;;;;;;5021102;28;20758;-60
2021/09/20 11:14:04;;;;;;;3.60;2.72;;;;;;;;;;5032262;28;20033;-61
2021/09/20 11:16:46;;;;;;;3.47;3.00;;;;;;;;;;5032359;28;20017;-59
2021/09/20 11:19:24;;;;;;;3.78;3.47;;;;;;;;;;5031287;28;20025;-59
2021/09/20 11:24:33;;;;;;;5.30;3.92;;;;;;;;;;5032337;28;20115;-57
2021/09/20 11:26:59;;;;;;;3.92;3.63;;;;;;;;;;5032501;28;20381;-59
2021/09/20 11:29:24;;;;;;;3.17;2.90;;;;;;;;;;5033157;28;20013;-61
2021/09/20 11:31:52;;;;;;;3.15;2.85;;;;;;;;;;5032390;28;20033;-57
2021/09/20 11:34:30;;;;;;;4.38;3.80;;;;;;;;;;5032425;28;20033;-61
2021/09/20 11:37:11;;;;;;;3.50;3.20;;;;;;;;;;5032831;28;20099;-61
2021/09/20 11:39:46;;;;;;;4.35;3.97;;;;;;;;;;5032441;28;20017;-61
2021/09/20 11:42:12;;;;;;;4.40;4.00;;;;;;;;;;5032454;28;20032;-56
2021/09/20 11:44:46;;;;;;;4.15;3.75;;;;;;;;;;5032055;28;20115;-62
2021/09/20 11:47:12;;;;;;;4.00;3.42;;;;;;;;;;5033963;28;20062;-59
2021/09/20 11:49:37;;;;;;;3.75;3.13;;;;;;;;;;5031545;28;20377;-59
2021/09/20 11:52:02;;;;;;;5.72;3.60;;;;;;;;;;5030769;28;20100;-63
2021/09/20 11:54:33;;;;;;;4.30;3.67;;;;;;;;;;5031391;28;20022;-59
2021/09/20 11:57:20;;;;;;;4.30;3.90;;;;;;;;;;5034476;28;20462;-59
2021/09/20 11:59:46;;;;;;;5.40;3.92;;;;;;;;;;5047034;28;20041;-58
2021/09/20 12:02:27;;;;;;;3.72;3.42;;;;;;;;;;5030993;28;20109;-58
2021/09/20 12:04:53;;;;;;;6.07;3.50;;;;;;;;;;5032085;28;20029;-60
2021/09/20 12:07:26;;;;;;;5.28;4.07;;;;;;;;;;5063453;28;20385;-61
2021/09/20 12:09:51;;;;;;;3.72;3.45;;;;;;;;;;5031435;28;20029;-61
2021/09/20 12:12:16;;;;;;;3.97;3.67;;;;;;;;;;5031707;28;20029;-59
2021/09/20 12:14:52;;;;;;;4.32;3.90;;;;;;;;;;5031472;28;20075;-59
2021/09/20 12:17:17;;;;;;;3.90;3.40;;;;;;;;;;5031829;28;20392;-62
2021/09/20 12:19:50;;;;;;;6.22;3.65;;;;;;;;;;5030944;28;20028;-60
2021/09/20 12:22:15;;;;;;;3.65;3.28;;;;;;;;;;5030042;28;20136;-55
2021/09/20 12:24:40;;;;;;;3.75;3.45;;;;;;;;;;5031613;28;20021;-59
2021/09/20 12:27:06;;;;;;;4.45;2.95;;;;;;;;;;5030670;28;20489;-58
2021/09/20 12:29:31;;;;;;;3.53;3.15;;;;;;;;;;5030342;28;20520;-58
2021/09/20 12:31:56;;;;;;;3.75;3.33;;;;;;;;;;5031801;28;20025;-57
2021/09/20 12:34:22;;;;;;;4.15;3.13;;;;;;;;;;5031292;28;20025;-59
2021/09/20 12:36:57;;;;;;;4.70;4.28;;;;;;;;;;5034831;28;20493;-61
2021/09/20 12:39:27;;;;;;;4.43;3.78;;;;;;;;;;5031697;28;20020;-61
2021/09/20 12:41:56;;;;;;;4.03;2.92;;;;;;;;;;5030594;28;20041;-57
2021/09/20 12:44:31;;;;;;;3.38;3.15;;;;;;;;;;5029581;28;20022;-58
2021/09/20 12:47:04;;;;;;;3.15;2.92;;;;;;;;;;5031411;28;20171;-58
2021/09/20 12:49:29;;;;;;;4.57;3.10;;;;;;;;;;5030516;28;20721;-57
2021/09/20 12:51:55;;;;;;;3.20;2.90;;;;;;;;;;5033545;28;20017;-58
2021/09/20 12:54:20;;;;;;;4.35;2.90;;;;;;;;;;5034696;28;20172;-59
2021/09/20 12:56:45;;;;;;;3.67;3.25;;;;;;;;;;5033929;28;20433;-59
2021/09/20 12:59:13;;;;;;;3.00;2.80;;;;;;;;;;5033984;28;20037;-53
2021/09/20 13:01:43;;;;;;;5.65;3.83;;;;;;;;;;5034214;28;20024;-58
2021/09/20 13:04:08;;;;;;;3.53;3.05;;;;;;;;;;5033859;28;20025;-58
2021/09/20 13:06:35;;;;;;;3.95;3.65;;;;;;;;;;5035246;28;20025;-57
2021/09/20 13:09:01;;;;;;;3.63;3.13;;;;;;;;;;5036095;28;20150;-65
2021/09/20 13:11:27;;;;;;;5.25;3.17;;;;;;;;;;5033089;28;20397;-59
2021/09/20 13:13:52;;;;;;;3.50;2.85;;;;;;;;;;5034396;28;20453;-65
2021/09/20 13:16:37;;;;;;;4.68;3.55;;;;;;;;;;5033899;28;20021;-59
2021/09/20 13:19:08;;;;;;;3.47;3.17;;;;;;;;;;5035653;28;20584;-57
2021/09/20 13:21:34;;;;;;;3.30;3.03;;;;;;;;;;5033101;28;20112;-58
2021/09/20 13:23:59;;;;;;;2.67;2.42;;;;;;;;;;5033763;28;20077;-59
2021/09/20 13:26:32;;;;;;;3.30;2.97;;;;;;;;;;5034215;28;20104;-58
2021/09/20 13:29:00;;;;;;;3.78;3.50;;;;;;;;;;5034629;28;20092;-59
2021/09/20 13:31:29;;;;;;;4.03;3.05;;;;;;;;;;5035790;28;20742;-58
2021/09/20 13:33:54;;;;;;;3.33;3.03;;;;;;;;;;5036205;28;20090;-59
2021/09/20 13:36:20;;;;;;;6.43;3.17;;;;;;;;;;5037109;28;20496;-59
2021/09/20 13:38:45;;;;;;;3.60;3.10;;;;;;;;;;5035739;28;20476;-58
2021/09/20 13:41:12;;;;;;;3.10;2.80;;;;;;;;;;5036194;28;20029;-60
2021/09/20 13:43:38;;;;;;;4.65;3.40;;;;;;;;;;5034650;28;20024;-60
2021/09/20 13:46:04;;;;;;;3.20;2.88;;;;;;;;;;5035769;28;20037;-60
2021/09/20 13:48:30;;;;;;;3.20;2.75;;;;;;;;;;5033965;28;20029;-60
2021/09/20 13:50:55;;;;;;;3.95;3.60;;;;;;;;;;5035235;28;20041;-59
2021/09/20 13:53:21;;;;;;;5.10;3.10;;;;;;;;;;5033764;28;20099;-60
2021/09/20 13:55:47;;;;;;;2.85;2.65;;;;;;;;;;5033983;28;20028;-61
2021/09/20 13:58:12;;;;;;;3.05;2.75;;;;;;;;;;5033461;28;20017;-59
2021/09/20 14:00:39;;;;;;;3.10;2.85;;;;;;;;;;5034284;28;20348;-59
2021/09/20 14:03:07;;;;;;;3.20;2.75;;;;;;;;;;5032869;28;20025;-60
2021/09/20 14:05:34;;;;;;;4.15;3.10;;;;;;;;;;5034028;28;20448;-57
2021/09/20 14:07:59;;;;;;;4.30;3.72;;;;;;;;;;5034770;28;20064;-58
2021/09/20 14:10:25;;;;;;;6.70;4.70;;;;;;;;;;5033104;28;20112;-58
2021/09/20 14:12:50;;;;;;;2.60;2.40;;;;;;;;;;5034742;28;20025;-59
2021/09/20 14:15:17;;;;;;;4.63;2.92;;;;;;;;;;5033490;28;20029;-60
2021/09/20 14:17:42;;;;;;;2.58;2.45;;;;;;;;;;5035264;28;20025;-60
2021/09/20 14:20:08;;;;;;;4.65;2.85;;;;;;;;;;5035131;28;20441;-60
2021/09/20 14:22:34;;;;;;;2.65;2.45;;;;;;;;;;5036612;28;20091;-60
2021/09/20 14:25:01;;;;;;;2.83;2.33;;;;;;;;;;5031975;28;20033;-58
2021/09/20 14:27:27;;;;;;;2.58;2.38;;;;;;;;;;5033332;28;20020;-59
2021/09/20 14:29:52;;;;;;;2.55;2.38;;;;;;;;;;5031717;28;20028;-59
2021/09/20 14:32:18;;;;;;;3.13;2.90;;;;;;;;;;5034179;28;20041;-58
2021/09/20 14:34:44;;;;;;;3.10;2.78;;;;;;;;;;5031056;28;20709;-58
2021/09/20 14:37:09;;;;;;;3.70;2.95;;;;;;;;;;5033469;28;20099;-60
2021/09/20 14:39:34;;;;;;;2.65;2.45;;;;;;;;;;5032444;28;20017;-58
2021/09/20 14:42:00;;;;;;;2.88;2.67;;;;;;;;;;5035305;28;20067;-59
2021/09/20 14:44:25;;;;;;;2.47;2.28;;;;;;;;;;5033526;28;20041;-58